»·PEaware :: N659T KBLH-KSQL

N659T :: KBLH-KSQL

FLIGHT INFORMATION

Flight Status: Arrived
Operator: Privately registered:
United States
More flights under this callsign
Pilot: Donald L. (2830)
Aircraft: PIPER PA-24 COMMANCHE
(PA24)
More flights by this aircraft type
Origin: KBLH Blythe
United States
Destination: KSQL San Carlos
United States
More flights between these airports :: More routes between these airports
Route: +BLH TNP V264 YUCCA V386 PMD GMN V137 SNS V25 OSI
File this flight plan on PilotEdge
Remarks:
Altitude:
(Current/Filed)
12,000ft
Speed:
(Current/Filed)
155kts
Departed: 14-Feb-18 06:22 PM
Arrived: 14-Feb-18 09:51 PM
Distance/Time
Traveled:
435nm/3:29
Distance/Time
To Go:
Arrived

Flight Plot

Page will automatically refresh every two minutes.

Flight plan parsing failed; only flown route is shown


Map Options




Map Legend


Flown Route
Filed Route
Departure Airport
Arrival Airport
Navaid (VOR, NDB)
Fix

Horizontal Profiles

Position Reports

Time Latitude Longitude Heading Altitude Ground
Speed
14-Feb-18 18:28 33.582024 -114.564818 265 9941ft 144kts
14-Feb-18 18:29 33.582024 -114.564818 265 9941ft 144kts
14-Feb-18 18:30 33.582024 -114.564818 265 9941ft 144kts
14-Feb-18 18:31 33.614848 -114.713281 88 400ft 0kts
14-Feb-18 18:32 33.614848 -114.713278 88 400ft 0kts
14-Feb-18 18:33 33.614848 -114.713276 88 400ft 0kts
14-Feb-18 18:34 33.615361 -114.713262 93 400ft 9kts
14-Feb-18 18:35 33.615376 -114.707692 88 400ft 16kts
14-Feb-18 18:36 33.615936 -114.706255 328 400ft 0kts
14-Feb-18 18:37 33.615939 -114.706257 328 400ft 0kts
14-Feb-18 18:38 33.616535 -114.706950 270 400ft 4kts
14-Feb-18 18:39 33.616676 -114.734101 267 1107ft 107kts
14-Feb-18 18:40 33.613576 -114.763224 240 2326ft 102kts
14-Feb-18 18:41 33.603924 -114.796456 244 3668ft 106kts
14-Feb-18 18:42 33.597671 -114.830692 266 4873ft 109kts
14-Feb-18 18:43 33.600507 -114.867151 268 5974ft 109kts
14-Feb-18 18:44 33.600271 -114.903666 258 6979ft 110kts
14-Feb-18 18:45 33.602081 -114.940730 270 7945ft 112kts
14-Feb-18 18:46 33.613761 -114.975913 300 8807ft 119kts
14-Feb-18 18:47 33.635935 -115.006025 303 9614ft 119kts
14-Feb-18 18:48 33.656332 -115.036702 302 10363ft 118kts
14-Feb-18 18:49 33.680298 -115.064307 304 11081ft 119kts
14-Feb-18 18:50 33.704535 -115.090938 303 11731ft 118kts
14-Feb-18 18:51 33.727729 -115.119594 298 12084ft 131kts
14-Feb-18 18:52 33.750141 -115.153561 289 12379ft 126kts
14-Feb-18 18:53 33.770539 -115.191522 285 12225ft 142kts
14-Feb-18 18:54 33.788708 -115.234540 285 11999ft 142kts
14-Feb-18 18:55 33.808206 -115.275966 288 11948ft 139kts
14-Feb-18 18:56 33.827327 -115.316011 289 11943ft 138kts
14-Feb-18 18:57 33.846292 -115.355972 288 11945ft 137kts
14-Feb-18 18:58 33.864703 -115.396392 288 11946ft 137kts
14-Feb-18 18:59 33.883433 -115.436613 288 11947ft 137kts
14-Feb-18 19:00 33.901445 -115.477255 288 11948ft 137kts
14-Feb-18 19:01 33.919295 -115.518114 289 11951ft 138kts
14-Feb-18 19:02 33.937243 -115.558864 287 11952ft 138kts
14-Feb-18 19:03 33.954406 -115.599956 287 11953ft 137kts
14-Feb-18 19:04 33.972113 -115.640973 288 11953ft 138kts
14-Feb-18 19:05 33.988746 -115.682223 287 11956ft 137kts
14-Feb-18 19:06 34.005792 -115.723460 287 11959ft 137kts
14-Feb-18 19:07 34.021968 -115.764890 286 11961ft 136kts
14-Feb-18 19:08 34.038436 -115.806322 287 11965ft 137kts
14-Feb-18 19:09 34.054754 -115.848008 286 11969ft 136kts
14-Feb-18 19:10 34.070893 -115.889481 287 11972ft 137kts
14-Feb-18 19:11 34.087035 -115.931034 287 11976ft 137kts
14-Feb-18 19:12 34.102743 -115.972853 286 11980ft 136kts
14-Feb-18 19:13 34.118764 -116.014449 286 11984ft 136kts
14-Feb-18 19:14 34.134046 -116.056240 285 11986ft 135kts
14-Feb-18 19:15 34.149793 -116.097854 286 11990ft 136kts
14-Feb-18 19:16 34.165188 -116.139634 284 11995ft 136kts
14-Feb-18 19:17 34.180352 -116.181834 285 12004ft 137kts
14-Feb-18 19:18 34.195560 -116.224175 285 12004ft 137kts
14-Feb-18 19:19 34.210361 -116.266504 286 12005ft 137kts
14-Feb-18 19:20 34.225685 -116.309028 285 12004ft 137kts
14-Feb-18 19:21 34.239995 -116.351799 285 12003ft 137kts
14-Feb-18 19:22 34.254753 -116.394548 284 11998ft 137kts
14-Feb-18 19:23 34.268701 -116.437652 285 11993ft 137kts
14-Feb-18 19:24 34.282991 -116.480626 284 11993ft 138kts
14-Feb-18 19:25 34.296895 -116.523903 284 11993ft 137kts
14-Feb-18 19:26 34.310465 -116.567310 284 11992ft 138kts
14-Feb-18 19:27 34.331348 -116.607317 299 11990ft 144kts
14-Feb-18 19:28 34.357911 -116.643828 328 11963ft 157kts
14-Feb-18 19:29 34.400285 -116.658765 336 11982ft 159kts
14-Feb-18 19:30 34.442817 -116.673601 334 11986ft 158kts
14-Feb-18 19:31 34.485294 -116.688180 336 11981ft 158kts
14-Feb-18 19:32 34.506918 -116.722940 267 11988ft 135kts
14-Feb-18 19:33 34.513471 -116.768826 276 11978ft 138kts
14-Feb-18 19:34 34.519523 -116.814983 273 11972ft 139kts
14-Feb-18 19:35 34.524274 -116.861504 273 11966ft 139kts
14-Feb-18 19:36 34.529729 -116.908134 274 11967ft 139kts
14-Feb-18 19:37 34.534284 -116.954799 274 11967ft 140kts
14-Feb-18 19:38 34.539499 -117.001885 274 11965ft 140kts
14-Feb-18 19:39 34.543621 -117.049069 271 11964ft 141kts
14-Feb-18 19:40 34.547355 -117.088507 273 11961ft 141kts
14-Feb-18 19:41 34.551622 -117.136214 272 11963ft 142kts
14-Feb-18 19:42 34.555193 -117.184035 272 11959ft 143kts
14-Feb-18 19:43 34.559895 -117.239926 272 11961ft 143kts
14-Feb-18 19:44 34.562615 -117.280224 272 11960ft 144kts
14-Feb-18 19:45 34.566064 -117.328576 272 11960ft 144kts
14-Feb-18 19:46 34.569246 -117.377244 272 11962ft 144kts
14-Feb-18 19:47 34.571571 -117.426034 272 11961ft 145kts
14-Feb-18 19:48 34.572863 -117.474815 271 11960ft 144kts
14-Feb-18 19:49 34.573983 -117.523774 272 11958ft 145kts
14-Feb-18 19:50 34.574979 -117.572886 271 11958ft 146kts
14-Feb-18 19:51 34.577868 -117.622114 275 11962ft 149kts
14-Feb-18 19:52 34.582586 -117.673810 276 11955ft 152kts
14-Feb-18 19:53 34.586842 -117.724494 275 11952ft 149kts
14-Feb-18 19:54 34.592090 -117.774051 284 11957ft 150kts
14-Feb-18 19:55 34.602251 -117.825009 282 11974ft 155kts
14-Feb-18 19:56 34.611768 -117.876357 281 11967ft 153kts
14-Feb-18 19:57 34.621069 -117.926022 282 11964ft 148kts
14-Feb-18 19:58 34.628913 -117.974719 272 11967ft 147kts
14-Feb-18 19:59 34.628880 -118.024462 271 11975ft 152kts
14-Feb-18 20:00 34.628123 -118.077640 271 11972ft 154kts
14-Feb-18 20:01 34.634857 -118.127445 287 11966ft 147kts
14-Feb-18 20:02 34.645545 -118.174474 286 11964ft 140kts
14-Feb-18 20:03 34.655362 -118.219143 287 11960ft 135kts
14-Feb-18 20:04 34.665936 -118.262389 288 11971ft 133kts
14-Feb-18 20:05 34.676546 -118.305819 288 11973ft 134kts
14-Feb-18 20:06 34.687123 -118.349200 287 11973ft 134kts
14-Feb-18 20:07 34.697448 -118.392798 288 11974ft 134kts
14-Feb-18 20:08 34.708008 -118.436450 288 11974ft 134kts
14-Feb-18 20:09 34.718689 -118.479735 288 11978ft 133kts
14-Feb-18 20:10 34.729260 -118.523076 288 11985ft 133kts
14-Feb-18 20:11 34.739898 -118.567335 288 12002ft 142kts
14-Feb-18 20:12 34.750919 -118.614131 287 12005ft 145kts
14-Feb-18 20:13 34.762104 -118.661728 288 12005ft 146kts
14-Feb-18 20:14 34.773075 -118.709468 288 12007ft 147kts
14-Feb-18 20:15 34.783793 -118.757409 288 12005ft 146kts
14-Feb-18 20:16 34.794261 -118.805370 286 12004ft 146kts
14-Feb-18 20:17 34.804243 -118.852994 286 12015ft 144kts
14-Feb-18 20:18 34.827417 -118.891475 312 12016ft 143kts
14-Feb-18 20:19 34.853428 -118.928110 312 12011ft 142kts
14-Feb-18 20:20 34.880189 -118.963682 312 12011ft 143kts
14-Feb-18 20:21 34.906577 -119.000279 311 12011ft 143kts
14-Feb-18 20:22 34.933142 -119.036396 313 12011ft 143kts
14-Feb-18 20:23 34.959405 -119.072504 313 12007ft 142kts
14-Feb-18 20:24 34.986472 -119.107884 315 12005ft 142kts
14-Feb-18 20:25 35.013369 -119.143037 311 12005ft 142kts
14-Feb-18 20:26 35.040500 -119.178183 315 12004ft 142kts
14-Feb-18 20:27 35.067819 -119.213018 314 12005ft 141kts
14-Feb-18 20:28 35.094760 -119.247949 314 12003ft 141kts
14-Feb-18 20:29 35.121614 -119.282995 313 12003ft 141kts
14-Feb-18 20:30 35.148122 -119.318244 314 12003ft 141kts
14-Feb-18 20:31 35.174663 -119.353449 314 12003ft 141kts
14-Feb-18 20:32 35.201057 -119.388893 313 12002ft 140kts
14-Feb-18 20:33 35.227051 -119.424537 313 12003ft 140kts
14-Feb-18 20:34 35.253037 -119.460263 311 12006ft 140kts
14-Feb-18 20:35 35.278968 -119.495878 312 12005ft 140kts
14-Feb-18 20:36 35.305044 -119.531299 313 12006ft 140kts
14-Feb-18 20:37 35.331199 -119.566684 314 12006ft 139kts
14-Feb-18 20:38 35.357015 -119.602147 313 12006ft 139kts
14-Feb-18 20:39 35.382766 -119.637766 314 12008ft 139kts
14-Feb-18 20:40 35.408423 -119.673632 313 12008ft 139kts
14-Feb-18 20:41 35.433648 -119.709344 313 12008ft 138kts
14-Feb-18 20:42 35.459108 -119.745055 315 12009ft 139kts
14-Feb-18 20:43 35.485208 -119.780062 315 12007ft 138kts
14-Feb-18 20:44 35.511360 -119.814755 315 12008ft 138kts
14-Feb-18 20:45 35.537438 -119.849577 314 12008ft 138kts
14-Feb-18 20:46 35.563295 -119.884821 314 12008ft 138kts
14-Feb-18 20:47 35.589042 -119.919977 313 12009ft 138kts
14-Feb-18 20:48 35.614733 -119.955388 314 12009ft 138kts
14-Feb-18 20:49 35.640319 -119.990820 313 12012ft 139kts
14-Feb-18 20:50 35.666533 -120.025300 317 12010ft 137kts
14-Feb-18 20:51 35.693908 -120.058345 318 12010ft 137kts
14-Feb-18 20:52 35.720830 -120.091658 318 12013ft 137kts
14-Feb-18 20:53 35.747909 -120.125080 319 12012ft 137kts
14-Feb-18 20:54 35.774838 -120.158445 316 12012ft 137kts
14-Feb-18 20:55 35.801559 -120.192078 317 12011ft 137kts
14-Feb-18 20:56 35.828496 -120.225528 316 12012ft 137kts
14-Feb-18 20:57 35.854917 -120.259677 314 12013ft 138kts
14-Feb-18 20:58 35.880430 -120.294879 314 12012ft 137kts
14-Feb-18 20:59 35.905767 -120.330303 314 12011ft 137kts
14-Feb-18 21:00 35.930326 -120.366387 313 12013ft 137kts
14-Feb-18 21:01 35.955193 -120.402504 313 12012ft 138kts
14-Feb-18 21:02 35.979518 -120.439119 312 12010ft 138kts
14-Feb-18 21:03 36.004245 -120.475209 314 12013ft 137kts
14-Feb-18 21:04 36.028681 -120.511802 312 12016ft 137kts
14-Feb-18 21:05 36.053216 -120.547959 315 12020ft 137kts
14-Feb-18 21:06 36.077515 -120.584569 311 12019ft 137kts
14-Feb-18 21:07 36.101976 -120.621000 313 12021ft 137kts
14-Feb-18 21:08 36.126391 -120.657418 311 12022ft 137kts
14-Feb-18 21:09 36.149843 -120.695081 311 12023ft 137kts
14-Feb-18 21:10 36.173547 -120.732125 310 12024ft 137kts
14-Feb-18 21:11 36.194631 -120.766146 310 12028ft 137kts
14-Feb-18 21:12 36.217904 -120.803557 311 12030ft 137kts
14-Feb-18 21:13 36.241160 -120.841377 310 12032ft 138kts
14-Feb-18 21:14 36.264136 -120.879204 309 12036ft 137kts
14-Feb-18 21:15 36.285511 -120.918448 304 12039ft 137kts
14-Feb-18 21:16 36.305031 -120.959293 304 12041ft 137kts
14-Feb-18 21:17 36.324719 -120.999937 304 12068ft 137kts
14-Feb-18 21:18 36.344021 -121.040878 304 12074ft 137kts
14-Feb-18 21:19 36.363499 -121.081900 304 12077ft 138kts
14-Feb-18 21:20 36.384244 -121.121962 308 12081ft 137kts
14-Feb-18 21:21 36.405985 -121.160852 309 12083ft 137kts
14-Feb-18 21:22 36.427752 -121.199846 307 12086ft 137kts
14-Feb-18 21:23 36.449308 -121.239300 308 12089ft 137kts
14-Feb-18 21:24 36.470752 -121.278609 307 12090ft 137kts
14-Feb-18 21:25 36.492201 -121.318002 308 12095ft 137kts
14-Feb-18 21:26 36.516939 -121.361778 306 10980ft 160kts
14-Feb-18 21:27 36.543160 -121.407071 307 10173ft 162kts
14-Feb-18 21:28 36.570591 -121.452254 307 9498ft 164kts
14-Feb-18 21:29 36.598497 -121.497432 306 8884ft 165kts
14-Feb-18 21:30 36.627069 -121.543514 307 8178ft 172kts
14-Feb-18 21:31 36.654812 -121.588458 306 7900ft 154kts
14-Feb-18 21:32 36.681022 -121.629635 309 7903ft 152kts
14-Feb-18 21:33 36.708002 -121.670549 308 7901ft 151kts
14-Feb-18 21:34 36.734597 -121.711247 308 7908ft 155kts
14-Feb-18 21:35 36.762148 -121.753447 308 7898ft 153kts
14-Feb-18 21:36 36.788579 -121.794178 308 7895ft 149kts
14-Feb-18 21:37 36.814695 -121.834359 307 7888ft 146kts
14-Feb-18 21:38 36.842407 -121.877234 308 6907ft 157kts
14-Feb-18 21:39 36.870271 -121.919048 308 6209ft 155kts
14-Feb-18 21:40 36.897275 -121.959864 309 5995ft 151kts
14-Feb-18 21:41 36.924183 -122.000552 308 5994ft 151kts
14-Feb-18 21:42 36.950827 -122.040996 308 5989ft 149kts
14-Feb-18 21:43 36.981082 -122.075549 332 5993ft 151kts
14-Feb-18 21:44 37.019512 -122.097406 330 5993ft 151kts
14-Feb-18 21:45 37.057710 -122.119406 332 5998ft 151kts
14-Feb-18 21:46 37.096734 -122.139337 333 5999ft 151kts
14-Feb-18 21:47 37.136241 -122.158249 332 6002ft 151kts
14-Feb-18 21:48 37.176386 -122.175156 338 6003ft 153kts
14-Feb-18 21:49 37.216805 -122.191360 336 6003ft 152kts
14-Feb-18 21:50 37.257881 -122.209636 335 5672ft 163kts
14-Feb-18 21:51 37.293722 -122.226792 334 4990ft 169kts
14-Feb-18 21:52 37.340186 -122.249071 327 5020ft 148kts
14-Feb-18 21:53 37.369866 -122.270507 327 5071ft 148kts
14-Feb-18 21:54 37.409554 -122.283088 8 5033ft 158kts
14-Feb-18 21:55 37.452892 -122.242951 31 3227ft 166kts
14-Feb-18 21:56 37.481921 -122.216254 17 2165ft 130kts
14-Feb-18 21:57 37.502703 -122.236919 337 467ft 76kts
14-Feb-18 21:58 37.512314 -122.250012 308 8ft 2kts
14-Feb-18 21:59 37.512983 -122.249548 6 8ft 0kts
14-Feb-18 22:00 37.513126 -122.249601 316 8ft 0kts
14-Feb-18 22:01 37.513126 -122.249601 316 8ft 0kts
14-Feb-18 22:02 37.513126 -122.249601 316 8ft 0kts
14-Feb-18 22:03 37.513126 -122.249601 316 8ft 0kts
14-Feb-18 22:04 37.513126 -122.249601 316 8ft 0kts
14-Feb-18 22:05 37.513126 -122.249601 316 8ft 0kts
14-Feb-18 22:06 37.513126 -122.249601 316 8ft 0kts
14-Feb-18 22:07 37.513126 -122.249601 316 8ft 0kts
14-Feb-18 22:08 37.513126 -122.249601 316 8ft 0kts
14-Feb-18 22:09 37.513126 -122.249601 316 8ft 0kts
14-Feb-18 22:10 37.513126 -122.249601 316 8ft 0kts
14-Feb-18 22:11 37.513126 -122.249601 316 8ft 0kts
14-Feb-18 22:12 37.513126 -122.249601 316 8ft 0kts

Navigation Log

Ident Type
Flight plan parsing failed, navigation log unavailable